createdAt,value
2022-12-05T00:00:49.037Z,12.43
2022-12-05T00:02:22.141Z,13.02
2022-12-05T00:03:56.919Z,11.98
2022-12-05T00:05:31.204Z,12.10
2022-12-05T00:07:04.261Z,12.05
2022-12-05T00:08:37.318Z,11.75
2022-12-05T00:10:11.176Z,12.48
2022-12-05T00:11:44.888Z,12.18
2022-12-05T00:13:17.819Z,11.40
2022-12-05T00:14:51.039Z,12.57
2022-12-05T00:16:26.747Z,12.52
2022-12-05T00:17:58.688Z,11.77
2022-12-05T00:19:31.533Z,11.75
2022-12-05T00:21:05.194Z,11.98
2022-12-05T00:22:38.936Z,12.18
2022-12-05T00:24:14.644Z,13.10
2022-12-05T00:25:47.494Z,12.13
2022-12-05T00:27:20.383Z,12.60
2022-12-05T00:28:52.936Z,12.10
2022-12-05T00:30:25.779Z,12.63
2022-12-05T00:31:58.834Z,12.57
2022-12-05T00:33:31.833Z,12.45
2022-12-05T00:35:05.093Z,12.90
2022-12-05T00:36:38.891Z,11.93
2022-12-05T00:38:11.844Z,13.18
2022-12-05T00:39:44.853Z,11.23
2022-12-05T00:41:19.267Z,12.10
2022-12-05T00:42:52.581Z,12.60
2022-12-05T00:46:01.505Z,11.50
2022-12-05T00:47:36.661Z,11.80
2022-12-05T00:49:08.673Z,11.70
2022-12-05T00:50:41.525Z,11.95
2022-12-05T00:52:15.781Z,11.60
2022-12-05T00:53:48.285Z,12.05
2022-12-05T00:55:21.413Z,11.75
2022-12-05T00:56:56.342Z,12.00
2022-12-05T00:58:28.271Z,12.90
2022-12-05T01:00:01.107Z,12.07
2022-12-05T01:01:35.546Z,12.07
2022-12-05T01:03:08.504Z,12.32
2022-12-05T01:04:41.452Z,12.35
2022-12-05T01:06:14.854Z,12.70
2022-12-05T01:09:22.583Z,11.30
2022-12-05T01:10:55.834Z,12.43
2022-12-05T01:12:29.886Z,13.15
2022-12-05T01:14:02.831Z,13.40
2022-12-05T01:15:38.001Z,11.65
2022-12-05T01:17:11.419Z,11.93
2022-12-05T01:18:43.656Z,13.63
2022-12-05T01:20:16.682Z,14.27
2022-12-05T01:21:49.918Z,15.82
2022-12-05T01:23:23.760Z,14.75
2022-12-05T01:24:58.160Z,14.18
2022-12-05T01:26:31.123Z,14.07
2022-12-05T01:28:03.098Z,14.50
2022-12-05T01:29:36.094Z,15.43
2022-12-05T01:31:10.158Z,15.90
2022-12-05T01:32:43.074Z,15.52
2022-12-05T01:34:17.784Z,14.98
2022-12-05T01:35:49.809Z,14.60
2022-12-05T01:37:23.028Z,14.88
2022-12-05T01:38:58.064Z,15.15
2022-12-05T01:40:31.436Z,15.02
2022-12-05T01:43:56.780Z,14.25
2022-12-05T01:45:35.300Z,13.68
2022-12-05T01:47:08.605Z,14.30
2022-12-05T01:48:42.492Z,13.38
2022-12-05T01:50:15.503Z,12.68
2022-12-05T01:51:51.172Z,14.02
2022-12-05T01:53:24.330Z,12.85
2022-12-05T01:55:02.883Z,13.45
2022-12-05T01:56:37.307Z,14.48
2022-12-05T01:58:10.746Z,14.15
2022-12-05T02:01:24.384Z,13.18
2022-12-05T02:03:00.227Z,13.20
2022-12-05T02:04:39.595Z,12.95
2022-12-05T02:06:14.178Z,13.70
2022-12-05T02:07:48.804Z,12.20
2022-12-05T02:09:22.084Z,12.82
2022-12-05T02:10:58.597Z,12.43
2022-12-05T02:12:30.556Z,11.10
2022-12-05T02:14:17.073Z,12.80
2022-12-05T02:15:57.085Z,12.65
2022-12-05T02:17:40.031Z,12.05
2022-12-05T02:19:45.376Z,12.20
2022-12-05T02:21:44.896Z,11.70
2022-12-05T02:23:32.225Z,11.27
2022-12-05T02:25:34.111Z,11.15
2022-12-05T02:27:27.639Z,12.75
2022-12-05T02:29:34.019Z,11.27
2022-12-05T02:31:16.257Z,10.20
2022-12-05T02:32:57.088Z,10.48
2022-12-05T02:34:36.374Z,10.77
2022-12-05T02:36:16.116Z,10.40
2022-12-05T02:37:59.138Z,10.43
2022-12-05T02:39:42.422Z,10.15
2022-12-05T02:41:23.422Z,10.07
2022-12-05T02:43:01.813Z,10.13
2022-12-05T02:44:39.081Z,9.93
2022-12-05T02:46:20.186Z,9.85
2022-12-05T02:47:54.971Z,9.05
2022-12-05T02:49:32.584Z,9.32
2022-12-05T02:51:07.698Z,9.80
2022-12-05T02:52:41.934Z,9.05
2022-12-05T02:54:18.766Z,8.88
2022-12-05T02:55:52.219Z,9.55
2022-12-05T02:57:25.631Z,8.68
2022-12-05T03:00:30.439Z,7.90
2022-12-05T03:02:04.735Z,8.00
2022-12-05T03:03:38.088Z,8.48
2022-12-05T03:06:53.772Z,7.85
2022-12-05T03:08:30.921Z,8.30
2022-12-05T03:10:07.972Z,8.32
2022-12-05T03:11:46.582Z,8.10
2022-12-05T03:13:25.074Z,8.15
2022-12-05T03:15:04.197Z,8.00
2022-12-05T03:16:41.791Z,8.43
2022-12-05T03:18:20.606Z,7.55
2022-12-05T03:19:59.234Z,8.13
2022-12-05T03:21:38.300Z,7.70
2022-12-05T03:23:15.701Z,7.60
2022-12-05T03:24:49.314Z,7.68
2022-12-05T03:26:38.351Z,7.13
2022-12-05T03:28:19.136Z,7.13
2022-12-05T03:29:57.408Z,6.90
2022-12-05T03:31:40.761Z,7.20
2022-12-05T03:33:18.558Z,7.10
2022-12-05T03:35:00.032Z,7.13
2022-12-05T03:36:38.524Z,7.00
2022-12-05T03:38:14.601Z,6.45
2022-12-05T03:39:55.585Z,7.15
2022-12-05T03:41:35.894Z,6.53
2022-12-05T03:43:14.637Z,6.40
2022-12-05T03:44:53.691Z,6.95
2022-12-05T03:46:31.129Z,6.97
2022-12-05T03:48:11.447Z,6.93
2022-12-05T03:49:49.213Z,7.07
2022-12-05T03:51:28.566Z,6.95
2022-12-05T03:53:21.401Z,6.82
2022-12-05T03:54:57.714Z,6.90
2022-12-05T03:56:36.743Z,7.05
2022-12-05T03:58:15.453Z,6.40
2022-12-05T03:59:52.605Z,6.50
2022-12-05T04:01:29.282Z,6.68
2022-12-05T04:03:05.826Z,6.80
2022-12-05T04:04:44.152Z,7.00
2022-12-05T04:06:24.080Z,6.68
2022-12-05T04:08:02.224Z,6.47
2022-12-05T04:09:40.132Z,6.82
2022-12-05T04:11:17.303Z,6.68
2022-12-05T04:12:52.873Z,6.53
2022-12-05T04:14:30.841Z,6.60
2022-12-05T04:16:25.292Z,6.68
2022-12-05T04:18:00.120Z,7.43
2022-12-05T04:19:57.116Z,7.32
2022-12-05T04:21:39.708Z,6.00
2022-12-05T04:23:12.041Z,5.63
2022-12-05T04:25:02.461Z,5.63
2022-12-05T04:26:37.526Z,4.93
2022-12-05T04:28:22.286Z,5.55
2022-12-05T04:30:02.481Z,5.13
2022-12-05T04:31:40.542Z,5.40
2022-12-05T04:33:17.184Z,5.63
2022-12-05T04:34:58.245Z,4.90
2022-12-05T04:36:35.276Z,4.78
2022-12-05T04:38:12.840Z,5.13
2022-12-05T04:39:49.839Z,4.88
2022-12-05T04:41:26.701Z,4.95
2022-12-05T04:43:02.703Z,5.00
2022-12-05T04:44:40.044Z,4.28
2022-12-05T04:46:15.716Z,4.40
2022-12-05T04:47:54.288Z,4.80
2022-12-05T04:49:30.081Z,4.45
2022-12-05T04:51:04.577Z,4.30
2022-12-05T04:52:40.393Z,4.50
2022-12-05T04:54:19.503Z,4.82
2022-12-05T04:55:56.410Z,4.20
2022-12-05T04:57:34.677Z,4.60
2022-12-05T04:59:07.686Z,4.20
2022-12-05T05:00:48.326Z,4.10
2022-12-05T05:02:24.898Z,4.15
2022-12-05T05:04:03.297Z,4.10
2022-12-05T05:05:37.626Z,4.38
2022-12-05T05:07:12.579Z,4.68
2022-12-05T05:08:51.574Z,3.58
2022-12-05T05:10:31.007Z,4.35
2022-12-05T05:12:04.648Z,3.85
2022-12-05T05:13:37.761Z,4.55
2022-12-05T05:15:11.236Z,7.20
2022-12-05T05:18:17.731Z,4.32
2022-12-05T05:19:50.629Z,4.30
2022-12-05T05:21:27.763Z,4.50
2022-12-05T05:23:00.602Z,4.32
2022-12-05T05:24:34.849Z,3.90
2022-12-05T05:26:07.835Z,4.40
2022-12-05T05:27:40.790Z,4.55
2022-12-05T05:29:15.321Z,4.32
2022-12-05T05:30:48.293Z,4.05
2022-12-05T05:32:21.331Z,3.92
2022-12-05T05:33:55.933Z,4.00
2022-12-05T05:35:28.810Z,4.15
2022-12-05T05:37:01.728Z,3.95
2022-12-05T05:38:37.959Z,4.05
2022-12-05T05:40:14.790Z,4.15
2022-12-05T05:41:47.749Z,4.20
2022-12-05T05:43:20.602Z,3.85
2022-12-05T05:44:52.489Z,4.53
2022-12-05T05:46:27.586Z,4.88
2022-12-05T05:48:00.557Z,5.22
2022-12-05T05:49:33.532Z,4.20
2022-12-05T05:51:07.844Z,4.65
2022-12-05T05:52:40.723Z,4.82
2022-12-05T05:54:13.639Z,4.80
2022-12-05T05:55:47.845Z,5.00
2022-12-05T05:57:20.886Z,5.57
2022-12-05T05:58:57.973Z,5.90
2022-12-05T06:00:30.993Z,5.10
2022-12-05T06:02:03.850Z,5.40
2022-12-05T06:03:37.656Z,5.43
2022-12-05T06:05:10.838Z,6.03
2022-12-05T06:06:43.861Z,5.70
2022-12-05T06:08:16.799Z,5.82
2022-12-05T06:09:49.749Z,6.28
2022-12-05T06:11:26.708Z,5.88
2022-12-05T06:13:01.415Z,6.10
2022-12-05T06:14:33.480Z,5.97
2022-12-05T06:16:07.569Z,6.15
2022-12-05T06:17:40.649Z,6.53
2022-12-05T06:19:13.580Z,5.85
2022-12-05T06:20:54.078Z,6.32
2022-12-05T06:22:26.991Z,6.35
2022-12-05T06:23:59.995Z,5.70
2022-12-05T06:25:32.848Z,6.20
2022-12-05T06:27:07.234Z,6.63
2022-12-05T06:28:40.406Z,5.97
2022-12-05T06:30:13.989Z,6.75
2022-12-05T06:31:46.978Z,6.72
2022-12-05T06:33:20.390Z,7.05
2022-12-05T06:36:26.725Z,7.30
2022-12-05T06:37:59.609Z,6.85
2022-12-05T06:39:32.561Z,6.93
2022-12-05T06:41:06.933Z,6.57
2022-12-05T06:42:41.185Z,7.13
2022-12-05T06:44:13.058Z,5.90
2022-12-05T06:45:45.950Z,7.13
2022-12-05T06:47:18.817Z,6.75
2022-12-05T06:48:53.560Z,7.20
2022-12-05T06:50:26.491Z,7.03
2022-12-05T06:52:02.915Z,7.00
2022-12-05T06:53:35.976Z,6.78
2022-12-05T06:55:17.198Z,6.38
2022-12-05T06:56:50.164Z,6.63
2022-12-05T06:58:24.554Z,6.53
2022-12-05T07:00:20.600Z,6.15
2022-12-05T07:01:53.392Z,6.30
2022-12-05T07:03:25.399Z,7.00
2022-12-05T07:04:58.245Z,6.70
2022-12-05T07:06:31.220Z,6.18
2022-12-05T07:08:04.238Z,6.63
2022-12-05T07:09:53.830Z,7.28
2022-12-05T07:11:27.056Z,7.30
2022-12-05T07:12:59.935Z,6.72
2022-12-05T07:14:50.277Z,6.95
2022-12-05T07:16:23.429Z,6.90
2022-12-05T07:17:56.355Z,7.55
2022-12-05T07:19:29.282Z,8.40
2022-12-05T07:21:13.090Z,8.60
2022-12-05T07:22:46.681Z,7.43
2022-12-05T07:24:19.637Z,9.30
2022-12-05T07:25:52.593Z,7.55
2022-12-05T07:27:28.035Z,7.55
2022-12-05T07:29:01.264Z,8.13
2022-12-05T07:30:35.710Z,7.63
2022-12-05T07:32:09.284Z,7.45
2022-12-05T07:33:42.415Z,7.35
2022-12-05T07:35:15.558Z,6.45
2022-12-05T07:36:48.571Z,6.97
2022-12-05T07:38:21.384Z,8.35
2022-12-05T07:39:54.568Z,8.82
2022-12-05T07:41:29.513Z,6.82
2022-12-05T07:43:02.391Z,8.77
2022-12-05T07:44:35.592Z,7.03
2022-12-05T07:46:12.258Z,8.85
2022-12-05T07:47:45.278Z,6.65
2022-12-05T07:49:18.217Z,7.45
2022-12-05T07:50:54.196Z,7.07
2022-12-05T07:52:28.226Z,7.00
2022-12-05T07:54:01.482Z,7.90
2022-12-05T07:55:34.353Z,6.82
2022-12-05T07:57:07.265Z,7.45
2022-12-05T07:58:40.131Z,6.93
2022-12-05T08:00:14.581Z,7.28
2022-12-05T08:01:48.903Z,6.60
2022-12-05T08:03:22.083Z,6.95
2022-12-05T08:04:55.060Z,7.30
2022-12-05T08:06:31.511Z,7.38
2022-12-05T08:08:04.594Z,6.13
2022-12-05T08:09:37.532Z,7.68
2022-12-05T08:11:12.902Z,8.57
2022-12-05T08:12:45.742Z,7.43
2022-12-05T08:14:18.635Z,7.40
2022-12-05T08:15:51.590Z,7.72
2022-12-05T08:17:26.635Z,8.15
2022-12-05T08:19:01.310Z,8.77
2022-12-05T08:20:34.234Z,9.75
2022-12-05T08:22:07.200Z,8.80
2022-12-05T08:23:40.762Z,9.65
2022-12-05T08:25:13.761Z,10.65
2022-12-05T08:26:46.687Z,10.95
2022-12-05T08:28:19.606Z,9.55
2022-12-05T08:29:52.496Z,7.85
2022-12-05T08:31:29.145Z,8.68
2022-12-05T08:33:03.575Z,7.90
2022-12-05T08:34:36.482Z,8.15
2022-12-05T08:36:12.116Z,8.20
2022-12-05T08:37:45.007Z,7.57
2022-12-05T08:39:20.521Z,7.53
2022-12-05T08:40:53.444Z,12.45
2022-12-05T08:42:26.377Z,9.00
2022-12-05T08:44:01.402Z,8.25
2022-12-05T08:45:34.296Z,8.45
2022-12-05T08:47:07.374Z,7.78
2022-12-05T08:48:41.704Z,7.45
2022-12-05T08:50:14.676Z,7.63
2022-12-05T08:51:47.848Z,7.82
2022-12-05T08:53:20.923Z,7.90
2022-12-05T08:54:53.803Z,7.90
2022-12-05T08:56:27.595Z,7.55
2022-12-05T08:58:00.621Z,8.05
2022-12-05T08:59:33.518Z,7.60
2022-12-05T09:01:08.068Z,7.57
2022-12-05T09:02:41.262Z,7.40
2022-12-05T09:04:15.538Z,7.78
2022-12-05T09:05:51.234Z,7.80
2022-12-05T09:07:26.766Z,7.35
2022-12-05T09:09:02.596Z,8.15
2022-12-05T09:10:35.499Z,7.43
2022-12-05T09:12:08.379Z,9.10
2022-12-05T09:13:41.666Z,7.60
2022-12-05T09:15:14.683Z,7.55
2022-12-05T09:16:48.770Z,7.43
2022-12-05T09:18:21.662Z,7.90
2022-12-05T09:19:55.853Z,7.70
2022-12-05T09:21:31.826Z,8.23
2022-12-05T09:23:04.783Z,7.45
2022-12-05T09:24:38.104Z,7.90
2022-12-05T09:26:14.040Z,7.40
2022-12-05T09:27:47.053Z,9.77
2022-12-05T09:29:20.068Z,7.43
2022-12-05T09:30:58.763Z,7.65
2022-12-05T09:32:31.896Z,8.50
2022-12-05T09:34:04.896Z,8.10
2022-12-05T09:35:41.885Z,7.82
2022-12-05T09:37:37.555Z,7.25
2022-12-05T09:39:08.211Z,8.45
2022-12-05T09:40:43.753Z,8.23
2022-12-05T09:42:36.755Z,8.30
2022-12-05T09:44:21.146Z,7.65
2022-12-05T09:46:00.675Z,7.32
2022-12-05T09:47:44.718Z,7.72
2022-12-05T09:49:17.715Z,7.90
2022-12-05T09:50:57.759Z,7.85
2022-12-05T09:52:35.844Z,7.93
2022-12-05T09:54:11.016Z,7.68
2022-12-05T09:55:47.456Z,7.60
2022-12-05T09:57:33.339Z,8.68
2022-12-05T09:59:06.962Z,7.55
2022-12-05T10:00:39.979Z,8.13
2022-12-05T10:02:23.154Z,7.95
2022-12-05T10:04:13.652Z,8.50
2022-12-05T10:05:55.068Z,7.63
2022-12-05T10:07:35.963Z,7.28
2022-12-05T10:09:24.985Z,7.45
2022-12-05T10:11:02.527Z,7.13
2022-12-05T10:12:48.964Z,8.77
2022-12-05T10:14:32.097Z,8.50
2022-12-05T10:16:10.578Z,8.20
2022-12-05T10:17:47.822Z,7.13
2022-12-05T10:19:26.895Z,7.47
2022-12-05T10:21:06.012Z,8.75
2022-12-05T10:22:45.735Z,7.82
2022-12-05T10:24:24.784Z,7.88
2022-12-05T10:25:59.591Z,7.55
2022-12-05T10:27:40.312Z,7.18
2022-12-05T10:29:29.114Z,7.45
2022-12-05T10:31:07.937Z,7.18
2022-12-05T10:32:50.763Z,7.20
2022-12-05T10:34:31.915Z,7.03
2022-12-05T10:36:11.136Z,7.57
2022-12-05T10:37:48.177Z,9.02
2022-12-05T10:39:21.171Z,6.90
2022-12-05T10:40:58.191Z,7.43
2022-12-05T10:42:35.758Z,7.70
2022-12-05T10:44:09.844Z,7.22
2022-12-05T10:45:45.405Z,6.32
2022-12-05T10:47:18.415Z,7.10
2022-12-05T10:48:51.411Z,7.43
2022-12-05T10:50:29.037Z,6.97
2022-12-05T10:52:04.849Z,6.63
2022-12-05T10:53:42.135Z,7.18
2022-12-05T10:55:18.931Z,7.47
2022-12-05T10:56:53.768Z,7.00
2022-12-05T10:58:29.112Z,7.85
2022-12-05T11:00:13.154Z,7.43
2022-12-05T11:01:49.914Z,6.65
2022-12-05T11:03:29.606Z,7.57
2022-12-05T11:05:03.326Z,8.02
2022-12-05T11:06:36.515Z,7.35
2022-12-05T11:08:35.619Z,7.10
2022-12-05T11:10:26.583Z,7.82
2022-12-05T11:12:17.862Z,7.00
2022-12-05T11:13:55.448Z,7.95
2022-12-05T11:15:29.933Z,7.88
2022-12-05T11:17:04.739Z,7.32
2022-12-05T11:18:37.679Z,8.38
2022-12-05T11:20:37.647Z,7.90
2022-12-05T11:22:18.504Z,7.85
2022-12-05T11:23:53.258Z,8.52
2022-12-05T11:25:32.261Z,9.25
2022-12-05T11:27:21.503Z,8.85
2022-12-05T11:28:54.444Z,8.30
2022-12-05T11:30:29.320Z,12.35
2022-12-05T11:32:03.182Z,9.00
2022-12-05T11:33:37.599Z,12.73
2022-12-05T11:35:24.240Z,9.50
2022-12-05T11:36:59.625Z,7.97
2022-12-05T11:38:34.677Z,7.88
2022-12-05T11:40:19.921Z,7.50
2022-12-05T11:42:11.450Z,7.00
2022-12-05T11:44:08.967Z,7.88
2022-12-05T11:45:54.953Z,7.10
2022-12-05T11:47:44.300Z,7.40
2022-12-05T11:49:36.904Z,6.45
2022-12-05T11:51:24.659Z,7.68
2022-12-05T11:53:10.012Z,6.95
2022-12-05T11:55:05.641Z,7.50
2022-12-05T11:56:44.443Z,7.07
2022-12-05T11:58:55.613Z,7.03
2022-12-05T12:00:36.128Z,7.70
2022-12-05T12:02:19.187Z,7.05
2022-12-05T12:04:19.050Z,7.43
2022-12-05T12:06:04.186Z,6.95
2022-12-05T12:07:50.784Z,6.65
2022-12-05T12:09:37.566Z,7.13
2022-12-05T12:11:28.356Z,7.18
2022-12-05T12:13:19.782Z,7.70
2022-12-05T12:15:03.669Z,7.70
2022-12-05T12:18:23.979Z,7.78
2022-12-05T12:20:13.150Z,7.38
2022-12-05T12:22:07.119Z,8.15
2022-12-05T12:23:52.979Z,7.90
2022-12-05T12:25:33.091Z,8.05
2022-12-05T12:27:16.986Z,8.20
2022-12-05T12:30:41.205Z,8.32
2022-12-05T12:32:26.777Z,7.40
2022-12-05T12:34:06.537Z,6.43
2022-12-05T12:35:49.324Z,6.75
2022-12-05T12:37:31.624Z,7.25
2022-12-05T12:39:26.833Z,6.50
2022-12-05T12:41:09.820Z,6.80
2022-12-05T12:42:57.703Z,6.78
2022-12-05T12:44:57.889Z,6.97
2022-12-05T12:46:43.758Z,7.72
2022-12-05T12:48:32.580Z,6.97
2022-12-05T12:50:14.570Z,7.00
2022-12-05T12:51:53.881Z,6.97
2022-12-05T12:53:42.818Z,7.50
2022-12-05T12:55:23.034Z,7.63
2022-12-05T12:57:12.099Z,7.50
2022-12-05T12:58:52.471Z,8.10
2022-12-05T13:00:37.379Z,7.47
2022-12-05T13:02:17.322Z,7.93
2022-12-05T13:03:53.851Z,6.80
2022-12-05T13:05:33.623Z,6.75
2022-12-05T13:07:12.269Z,10.07
2022-12-05T13:08:49.727Z,7.53
2022-12-05T13:10:27.757Z,6.78
2022-12-05T13:12:06.115Z,7.03
2022-12-05T13:13:44.293Z,6.68
2022-12-05T13:15:20.978Z,6.90
2022-12-05T13:16:56.782Z,7.00
2022-12-05T13:18:29.710Z,7.00
2022-12-05T13:20:03.018Z,6.68
2022-12-05T13:21:37.004Z,6.72
2022-12-05T13:23:15.798Z,6.82
2022-12-05T13:24:50.998Z,6.85
2022-12-05T13:26:24.611Z,6.55
2022-12-05T13:27:59.909Z,7.13
2022-12-05T13:29:35.795Z,6.75
2022-12-05T13:31:10.541Z,8.10
2022-12-05T13:32:45.436Z,8.13
2022-12-05T13:34:46.237Z,7.30
2022-12-05T13:36:38.763Z,6.57
2022-12-05T13:38:39.634Z,6.82
2022-12-05T13:40:48.287Z,7.25
2022-12-05T13:42:24.410Z,7.93
2022-12-05T13:44:06.469Z,9.10
2022-12-05T13:45:41.384Z,8.68
2022-12-05T13:47:26.621Z,7.65
2022-12-05T13:49:08.865Z,8.77
2022-12-05T13:50:52.549Z,8.55
2022-12-05T13:52:30.064Z,10.40
2022-12-05T13:54:11.209Z,8.85
2022-12-05T13:55:57.704Z,9.13
2022-12-05T13:57:49.073Z,12.00
2022-12-05T14:00:01.348Z,9.43
2022-12-05T14:01:53.714Z,7.80
2022-12-05T14:03:57.111Z,8.57
2022-12-05T14:05:49.678Z,7.82
2022-12-05T14:07:47.392Z,10.30
2022-12-05T14:09:29.960Z,9.57
2022-12-05T14:11:11.485Z,8.68
2022-12-05T14:12:53.892Z,7.35
2022-12-05T14:15:00.591Z,9.65
2022-12-05T14:16:45.367Z,7.78
2022-12-05T14:18:25.208Z,7.88
2022-12-05T14:20:10.647Z,7.82
2022-12-05T14:21:54.258Z,14.25
2022-12-05T14:23:50.113Z,15.65
2022-12-05T14:25:57.680Z,12.30
2022-12-05T14:27:49.648Z,9.80
2022-12-05T14:29:38.726Z,10.30
2022-12-05T14:31:34.237Z,8.98
2022-12-05T14:33:17.189Z,6.82
2022-12-05T14:34:56.967Z,7.30
2022-12-05T14:36:31.604Z,10.20
2022-12-05T14:38:07.479Z,9.65
2022-12-05T14:39:42.993Z,7.88
2022-12-05T14:41:23.575Z,8.50
2022-12-05T14:42:59.971Z,8.68
2022-12-05T14:44:33.313Z,8.38
2022-12-05T14:47:40.827Z,8.85
2022-12-05T14:49:55.519Z,9.52
2022-12-05T14:51:57.477Z,7.80
2022-12-05T14:53:38.332Z,8.50
2022-12-05T14:55:22.108Z,8.35
2022-12-05T14:57:09.774Z,8.48
2022-12-05T14:58:48.264Z,7.57
2022-12-05T15:00:23.717Z,7.80
2022-12-05T15:01:59.183Z,8.20
2022-12-05T15:03:36.312Z,7.57
2022-12-05T15:05:22.982Z,8.27
2022-12-05T15:06:58.851Z,8.20
2022-12-05T15:08:40.214Z,8.18
2022-12-05T15:10:21.424Z,7.47
2022-12-05T15:11:54.980Z,7.93
2022-12-05T15:13:28.815Z,7.88
2022-12-05T15:15:07.796Z,7.53
2022-12-05T15:16:44.760Z,7.75
2022-12-05T15:18:23.424Z,8.32
2022-12-05T15:20:03.764Z,8.52
2022-12-05T15:21:43.244Z,7.70
2022-12-05T15:23:44.064Z,7.75
2022-12-05T15:25:23.951Z,8.13
2022-12-05T15:26:58.413Z,8.07
2022-12-05T15:28:31.332Z,8.40
2022-12-05T15:30:04.530Z,8.55
2022-12-05T15:31:40.130Z,8.73
2022-12-05T15:33:14.269Z,8.48
2022-12-05T15:34:52.074Z,8.25
2022-12-05T15:36:30.565Z,8.40
2022-12-05T15:38:09.364Z,8.10
2022-12-05T15:39:55.180Z,10.60
2022-12-05T15:41:28.778Z,8.55
2022-12-05T15:43:01.716Z,8.68
2022-12-05T15:44:38.193Z,8.15
2022-12-05T15:46:23.846Z,9.52
2022-12-05T15:47:58.343Z,8.73
2022-12-05T15:49:31.228Z,9.23
2022-12-05T15:51:04.408Z,9.80
2022-12-05T15:52:43.803Z,8.77
2022-12-05T15:54:23.726Z,8.68
2022-12-05T15:57:45.448Z,8.52
2022-12-05T15:59:22.258Z,8.23
2022-12-05T16:01:08.048Z,7.85
2022-12-05T16:02:45.747Z,9.07
2022-12-05T16:04:29.426Z,9.20
2022-12-05T16:06:10.577Z,10.63
2022-12-05T16:07:43.559Z,9.20
2022-12-05T16:09:19.795Z,9.82
2022-12-05T16:10:52.959Z,9.32
2022-12-05T16:12:35.451Z,8.98
2022-12-05T16:14:09.171Z,10.18
2022-12-05T16:15:50.807Z,9.93
2022-12-05T16:17:25.435Z,8.82
2022-12-05T16:18:59.926Z,9.15
2022-12-05T16:20:34.777Z,9.35
2022-12-05T16:22:10.634Z,9.30
2022-12-05T16:23:45.108Z,9.13
2022-12-05T16:25:22.607Z,9.30
2022-12-05T16:27:02.641Z,8.88
2022-12-05T16:28:37.115Z,9.07
2022-12-05T16:30:22.188Z,9.43
2022-12-05T16:31:56.663Z,8.85
2022-12-05T16:33:31.098Z,8.88
2022-12-05T16:35:04.620Z,7.90
2022-12-05T16:36:37.578Z,8.70
2022-12-05T16:38:14.657Z,7.95
2022-12-05T16:39:47.706Z,8.00
2022-12-05T16:41:22.318Z,7.55
2022-12-05T16:43:02.854Z,7.60
2022-12-05T16:45:03.584Z,7.05
2022-12-05T16:46:45.441Z,7.45
2022-12-05T16:48:22.496Z,6.45
2022-12-05T16:49:55.418Z,6.95
2022-12-05T16:51:40.444Z,6.78
2022-12-05T16:53:23.768Z,7.55
2022-12-05T16:54:56.840Z,7.35
2022-12-05T16:59:38.899Z,6.25
2022-12-05T17:01:18.489Z,7.20
2022-12-05T17:02:55.257Z,6.78
2022-12-05T17:04:28.397Z,6.80
2022-12-05T17:06:01.589Z,6.85
2022-12-05T17:07:34.569Z,6.28
2022-12-05T17:09:07.490Z,5.93
2022-12-05T17:10:40.572Z,5.30
2022-12-05T17:12:19.243Z,5.28
2022-12-05T17:13:53.317Z,5.07
2022-12-05T17:15:26.117Z,5.03
2022-12-05T17:17:03.047Z,5.28
2022-12-05T17:18:35.883Z,4.68
2022-12-05T17:20:09.410Z,4.93
2022-12-05T17:21:43.575Z,5.15
2022-12-05T17:23:17.227Z,6.30
2022-12-05T17:24:50.192Z,4.57
2022-12-05T17:26:23.451Z,5.85
2022-12-05T17:27:56.309Z,4.70
2022-12-05T17:29:35.284Z,4.93
2022-12-05T17:31:12.663Z,5.47
2022-12-05T17:32:47.060Z,6.55
2022-12-05T17:34:19.895Z,6.03
2022-12-05T17:35:52.966Z,5.25
2022-12-05T17:37:25.835Z,5.50
2022-12-05T17:38:58.656Z,6.00
2022-12-05T17:40:31.922Z,6.22
2022-12-05T17:42:04.990Z,6.15
2022-12-05T17:43:38.067Z,6.90
2022-12-05T17:45:14.270Z,5.70
2022-12-05T17:46:47.150Z,6.15
2022-12-05T17:48:21.695Z,5.78
2022-12-05T17:49:54.538Z,6.10
2022-12-05T17:51:27.867Z,6.75
2022-12-05T17:53:05.885Z,6.57
2022-12-05T17:54:40.308Z,6.65
2022-12-05T17:56:13.417Z,6.78
2022-12-05T17:57:46.622Z,6.32
2022-12-05T17:59:19.492Z,6.22
2022-12-05T18:00:52.488Z,6.35
2022-12-05T18:02:25.421Z,5.05
2022-12-05T18:03:59.583Z,5.88
2022-12-05T18:05:32.428Z,6.10
2022-12-05T18:07:05.416Z,6.53
2022-12-05T18:08:39.703Z,6.60
2022-12-05T18:10:15.056Z,6.53
2022-12-05T18:11:47.974Z,6.57
2022-12-05T18:13:20.874Z,6.63
2022-12-05T18:14:53.804Z,6.95
2022-12-05T18:16:26.690Z,6.90
2022-12-05T18:18:03.105Z,6.50
2022-12-05T18:19:37.616Z,6.43
2022-12-05T18:21:11.796Z,6.68
2022-12-05T18:22:44.702Z,7.88
2022-12-05T18:24:17.583Z,6.88
2022-12-05T18:25:59.416Z,7.10
2022-12-05T18:27:32.508Z,6.88
2022-12-05T18:29:05.714Z,7.10
2022-12-05T18:30:38.748Z,6.93
2022-12-05T18:32:12.305Z,6.75
2022-12-05T18:33:46.450Z,7.85
2022-12-05T18:35:39.979Z,6.97
2022-12-05T18:37:13.169Z,6.95
2022-12-05T18:38:51.154Z,6.47
2022-12-05T18:40:25.438Z,7.28
2022-12-05T18:42:00.544Z,7.30
2022-12-05T18:43:34.026Z,8.48
2022-12-05T18:45:08.151Z,7.50
2022-12-05T18:46:41.456Z,8.55
2022-12-05T18:48:38.109Z,9.13
2022-12-05T18:50:09.768Z,8.43
2022-12-05T18:51:44.097Z,8.52
2022-12-05T18:53:17.141Z,8.32
2022-12-05T18:55:09.251Z,9.30
2022-12-05T18:56:45.726Z,9.20
2022-12-05T18:58:18.653Z,9.48
2022-12-05T18:59:51.949Z,9.25
2022-12-05T19:02:58.104Z,8.73
2022-12-05T19:04:31.008Z,9.63
2022-12-05T19:06:12.508Z,9.18
2022-12-05T19:07:46.775Z,8.80
2022-12-05T19:09:21.410Z,9.15
2022-12-05T19:10:54.270Z,9.65
2022-12-05T19:12:27.247Z,10.98
2022-12-05T19:14:01.785Z,9.32
2022-12-05T19:15:34.730Z,9.02
2022-12-05T19:17:07.686Z,9.35
2022-12-05T19:18:40.578Z,10.45
2022-12-05T19:20:14.291Z,8.85
2022-12-05T19:21:47.590Z,9.30
2022-12-05T19:23:21.895Z,8.95
2022-12-05T19:24:55.051Z,9.35
2022-12-05T19:26:28.132Z,8.95
2022-12-05T19:28:00.979Z,8.40
2022-12-05T19:29:33.842Z,8.50
2022-12-05T19:31:08.866Z,8.45
2022-12-05T19:32:41.806Z,8.38
2022-12-05T19:34:14.673Z,8.27
2022-12-05T19:35:47.675Z,8.80
2022-12-05T19:37:20.638Z,9.25
2022-12-05T19:38:56.202Z,8.23
2022-12-05T19:40:29.060Z,7.85
2022-12-05T19:42:02.056Z,8.60
2022-12-05T19:43:36.627Z,8.50
2022-12-05T19:45:13.564Z,8.48
2022-12-05T19:46:51.150Z,8.27
2022-12-05T19:48:24.589Z,8.13
2022-12-05T19:51:31.524Z,8.15
2022-12-05T19:53:04.434Z,8.55
2022-12-05T19:54:38.768Z,7.72
2022-12-05T19:56:14.644Z,7.97
2022-12-05T19:57:47.590Z,8.15
2022-12-05T19:59:21.244Z,8.07
2022-12-05T20:00:54.221Z,7.82
2022-12-05T20:02:30.462Z,8.00
2022-12-05T20:04:05.675Z,8.52
2022-12-05T20:05:38.973Z,7.88
2022-12-05T20:07:12.048Z,8.98
2022-12-05T20:08:45.328Z,9.27
2022-12-05T20:10:19.841Z,7.97
2022-12-05T20:11:55.601Z,9.02
2022-12-05T20:15:22.172Z,8.88
2022-12-05T20:16:55.621Z,8.98
2022-12-05T20:18:28.804Z,10.57
2022-12-05T20:20:01.915Z,9.15
2022-12-05T20:21:36.433Z,9.27
2022-12-05T20:23:09.419Z,9.35
2022-12-05T20:24:42.366Z,9.57
2022-12-05T20:26:19.169Z,8.77
2022-12-05T20:27:52.372Z,9.23
2022-12-05T20:29:25.708Z,9.32
2022-12-05T20:31:06.787Z,10.95
2022-12-05T20:32:39.763Z,11.13
2022-12-05T20:34:15.133Z,10.38
2022-12-05T20:35:48.162Z,10.35
2022-12-05T20:37:21.161Z,10.63
2022-12-05T20:38:57.186Z,10.65
2022-12-05T20:40:30.301Z,10.38
2022-12-05T20:42:04.898Z,10.18
2022-12-05T20:43:38.176Z,10.02
2022-12-05T20:45:11.667Z,9.95
2022-12-05T20:46:45.008Z,9.95
2022-12-05T20:49:50.808Z,10.00
2022-12-05T20:51:27.301Z,10.48
2022-12-05T20:53:03.122Z,10.07
2022-12-05T20:54:36.251Z,11.48
2022-12-05T20:56:11.605Z,11.55
2022-12-05T20:57:45.837Z,11.65
2022-12-05T20:59:18.983Z,10.25
2022-12-05T21:00:59.293Z,10.95
2022-12-05T21:02:32.389Z,10.55
2022-12-05T21:04:06.462Z,10.57
2022-12-05T21:05:39.523Z,10.68
2022-12-05T21:07:12.454Z,9.95
2022-12-05T21:08:46.008Z,10.57
2022-12-05T21:10:19.096Z,10.23
2022-12-05T21:11:52.147Z,10.65
2022-12-05T21:13:26.578Z,10.45
2022-12-05T21:14:59.441Z,10.32
2022-12-05T21:16:32.425Z,10.85
2022-12-05T21:18:05.504Z,10.10
2022-12-05T21:19:39.365Z,9.52
2022-12-05T21:21:14.603Z,10.50
2022-12-05T21:22:47.464Z,10.18
2022-12-05T21:24:20.350Z,11.13
2022-12-05T21:25:53.458Z,10.00
2022-12-05T21:27:26.361Z,11.00
2022-12-05T21:29:01.860Z,10.00
2022-12-05T21:30:36.622Z,11.50
2022-12-05T21:32:09.773Z,10.55
2022-12-05T21:33:43.970Z,10.68
2022-12-05T21:35:16.940Z,10.48
2022-12-05T21:36:50.278Z,10.00
2022-12-05T21:39:55.986Z,9.27
2022-12-05T21:41:29.196Z,9.35
2022-12-05T21:43:02.094Z,9.00
2022-12-05T21:44:36.313Z,9.82
2022-12-05T21:46:08.259Z,9.73
2022-12-05T21:47:41.179Z,9.85
2022-12-05T21:49:14.045Z,10.13
2022-12-05T21:50:46.890Z,9.60
2022-12-05T21:52:19.703Z,9.82
2022-12-05T21:53:53.064Z,9.00
2022-12-05T21:56:58.892Z,10.05
2022-12-05T21:58:32.077Z,10.25
2022-12-05T22:00:07.739Z,10.23